• Join FlightAware (Why Join?)
  • Login
  • US Flag 
06:08PM EDT


 

Airport Tracker/Info


-or-


 

Live Flight TrackerFlight Track Log ✈ FLG3861 ✈ 11-Nov-2013 ✈ KDTW - KBGM

Flight Track Log - Related Links

Times and Time Zones

All times are in EST time to prevent confusion due to time zone crossing. See the FLG3861 flight status page for this flight to view local times or setup timezone preferences in your user account.

Time Position Orientation Groundspeed Altitude Reporting Facility
EST Latitude Longitude Course Direction KTS MPH feet Rate Location/Type
09:54PM 42.2261 -83.3531 42° Northeast 146 168 1,500  Level Cleveland Center
09:55PM 42.2514 -83.3228 42° Northeast 190 219 3,200 2,340 Climbing Cleveland Center
09:56PM 42.2789 -83.2864 44° Northeast 188 216 5,200 2,940 Climbing Cleveland Center
09:56PM 42.2847 -83.2711 63° Northeast 228 262 5,900 2,700 Climbing Cleveland Center
09:57PM 42.2950 -83.1839 81° East 248 285 8,000 2,160 Climbing Cleveland Center
09:57PM 42.2961 -83.1767 78° East 271 312 8,100 2,040 Climbing Cleveland Center
09:58PM 42.3089 -83.0656 81° East 312 359 10,200 1,740 Climbing Cleveland Center
09:59PM 42.3197 -82.9461 83° East 335 386 11,600 1,500 Climbing Cleveland Center
10:00PM 42.3342 -82.8050 82° East 369 425 13,300 1,800 Climbing Cleveland Center
10:01PM 42.3483 -82.6567 83° East 389 448 15,300 1,560 Climbing Cleveland Center
10:02PM 42.3619 -82.5008 83° East 410 472 16,600 960 Climbing Cleveland Center
10:03PM 42.3633 -82.3283 89° East 458 527 17,300 1,020 Climbing Cleveland Center
10:04PM 42.3539 -82.1250 94° East 473 544 18,800 780 Climbing Cleveland Center
10:05PM 42.3453 -81.9419 94° East 479 551 19,000 420 Climbing Cleveland Center
10:06PM 42.3369 -81.7433 93° East 512 589 19,700 720 Climbing Cleveland Center
10:07PM 42.3289 -81.5422 93° East 525 604 20,500 600 Climbing Cleveland Center
10:08PM 42.3183 -81.3400 94° East 532 612 21,000 480 Climbing Cleveland Center
10:09PM 42.3094 -81.1344 93° East 539 620 21,500 480 Climbing Cleveland Center
10:10PM 42.2978 -80.9289 94° East 543 625 22,000 480 Climbing Cleveland Center
10:11PM 42.2869 -80.7222 94° East 546 628 22,500 480 Climbing Cleveland Center
10:12PM 42.2761 -80.5183 94° East 541 623 23,000 480 Climbing Cleveland Center
10:13PM 42.2650 -80.3128 94° East 544 626 23,500 480 Climbing Cleveland Center
10:14PM 42.2522 -80.1072 95° East 544 626 24,100 480 Climbing Cleveland Center
10:15PM 42.2492 -79.8800 91° East 541 623 24,600 480 Climbing Cleveland Center
10:16PM 42.2503 -79.6758 90° East 544 626 25,100 480 Climbing Cleveland Center
10:17PM 42.2508 -79.4722 90° East 544 626 25,600 480 Climbing Cleveland Center
10:18PM 42.2506 -79.2686 90° East 544 626 26,100 480 Climbing Cleveland Center
10:19PM 42.2508 -79.0644 90° East 546 628 26,600 420 Climbing Cleveland Center
10:20PM 42.2519 -78.8411 90° East 545 627 27,000 180 Climbing Cleveland Center
10:21PM 42.2508 -78.6347 90° East 549 632 27,000  Level Cleveland Center
10:23PM 42.2497 -78.4267 90° East 556 640 27,000 -240 Level Cleveland Center
10:24PM 42.2486 -78.2175 90° East 561 646 26,600 -720 Descending Cleveland Center
10:25PM 42.2467 -78.0097 91° East 559 643 25,600 -1,140 Descending Cleveland Center
10:26PM 42.2439 -77.7647 91° East 552 635 24,400 -1,080 Descending Cleveland Center
10:27PM 42.2408 -77.5611 91° East 551 634 23,400 -1,560 Descending Cleveland Center
10:28PM 42.2378 -77.3614 91° East 543 625 21,300 -2,040 Descending Cleveland Center
10:29PM 42.2356 -77.1647 91° East 533 613 19,300 -1,920 Descending Cleveland Center
10:29PM 42.2322 -77.0106 92° East 533 613 17,800 -1,980 Descending New York Center
10:30PM 42.2292 -76.8283 91° East 509 586 15,800 -2,760 Descending New York Center
10:31PM 42.2239 -76.6431 92° East 475 547 12,400 -2,640 Descending New York Center
10:32PM 42.2206 -76.4942 92° East 432 497 10,500 -1,860 Descending New York Center
10:33PM 42.2158 -76.3736 93° East 373 429 8,700 -1,740 Descending New York Center
10:34PM 42.2128 -76.2611 92° East 325 374 7,100 -1,140 Descending New York Center
10:35PM 42.1817 -76.1719 115° Southeast 276 318 6,500 -1,140 Descending New York Center
10:36PM 42.1242 -76.1056 139° Southeast 265 305 4,800 -1,260 Descending New York Center
10:37PM 42.0786 -76.0517 139° Southeast 265 305 4,000 -420 Descending New York Center
10:38PM 42.0214 -75.9828 138° Southeast 265 305 4,000  Level New York Center
10:39PM 41.9814 -75.8961 122° Southeast 250 288 4,000 -60 Level New York Center
10:40PM 41.9969 -75.8247 74° East 203 234 3,900 -60 Descending New York Center
10:41PM 42.0422 -75.8394 346° North 131 151 3,900  Level New York Center
10:42PM 42.0761 -75.8697 326° Northwest 131 151 3,900 -60 Level New York Center
10:43PM 42.1122 -75.9006 328° Northwest 142 163 3,800 -420 Descending New York Center
10:44PM 42.1444 -75.9283 327° Northwest 147 169 3,100 -900 Descending New York Center
10:45PM 42.1786 -75.9561 329° Northwest 135 155 2,100 -1,020 Descending New York Center